FIN6PT EFHK-LICC
Flight info
| Callsign | FIN6PT |
|---|---|
| Flight time | N/A |
| Altitude | 36000 |
| Route | KOIVU Y123 LARTI DCT BERIL/N0441F370 DCT SUWGI/N0438F360 DCT LOGDA DCT BABKO/N0448F380 DCT VEBAL/N0441F370 DCT KUTID DCT PELEN DCT UXUTA |
| Aircraft | A320/M-SDE1E2E3FGIJ1M1RWXYZ/LB1 |
Departure
| Time | 2026-04-22 05:12 |
|---|---|
| Airport | Helsinki Vantaa Airport (EFHK) |
Arrival
| Time | N/A |
|---|---|
| Airport | Catania-Fontanarossa Airport (LICC) |
| Time | Latitude | Longitude | Altitude | Speed | Heading |
|---|---|---|---|---|---|
| 2026-04-22 04:43 | 60.31942 | 24.96685 | 164 ft | 0 kts | 137° |
| 2026-04-22 05:04 | 60.31950 | 24.96671 | 163 ft | 4 kts | 133° |
| 2026-04-22 05:04 | 60.31966 | 24.96627 | 163 ft | 4 kts | 108° |
| 2026-04-22 05:05 | 60.31967 | 24.96578 | 163 ft | 4 kts | 65° |
| 2026-04-22 05:05 | 60.31961 | 24.96556 | 163 ft | 0 kts | 47° |
| 2026-04-22 05:07 | 60.31968 | 24.96572 | 163 ft | 5 kts | 47° |
| 2026-04-22 05:07 | 60.31999 | 24.96640 | 163 ft | 6 kts | 47° |
| 2026-04-22 05:08 | 60.32034 | 24.96718 | 163 ft | 7 kts | 47° |
| 2026-04-22 05:08 | 60.32065 | 24.96786 | 163 ft | 6 kts | 48° |
| 2026-04-22 05:08 | 60.32093 | 24.96848 | 163 ft | 6 kts | 47° |
| 2026-04-22 05:08 | 60.32122 | 24.96909 | 163 ft | 6 kts | 43° |
| 2026-04-22 05:09 | 60.32157 | 24.96968 | 162 ft | 7 kts | 33° |
| 2026-04-22 05:09 | 60.32212 | 24.96947 | 162 ft | 10 kts | 331° |
| 2026-04-22 05:09 | 60.32272 | 24.96883 | 164 ft | 9 kts | 333° |
| 2026-04-22 05:09 | 60.32325 | 24.96829 | 165 ft | 8 kts | 333° |
| 2026-04-22 05:10 | 60.32368 | 24.96785 | 167 ft | 5 kts | 333° |
| 2026-04-22 05:10 | 60.32380 | 24.96773 | 168 ft | 0 kts | 333° |
| 2026-04-22 05:10 | 60.32380 | 24.96772 | 168 ft | 0 kts | 333° |
| 2026-04-22 05:10 | 60.32392 | 24.96761 | 169 ft | 3 kts | 333° |
| 2026-04-22 05:11 | 60.32433 | 24.96719 | 172 ft | 10 kts | 333° |
| 2026-04-22 05:11 | 60.32487 | 24.96657 | 174 ft | 7 kts | 321° |
| 2026-04-22 05:11 | 60.32472 | 24.96592 | 175 ft | 0 kts | 226° |
| 2026-04-22 05:11 | 60.32472 | 24.96591 | 175 ft | 0 kts | 226° |
| 2026-04-22 05:12 | 60.32427 | 24.96493 | 176 ft | 40 kts | 227° |
| 2026-04-22 05:12 | 60.32073 | 24.95712 | 174 ft | 108 kts | 227° |
| 2026-04-22 05:12 | 60.31434 | 24.94303 | 200 ft | 158 kts | 227° |
| 2026-04-22 05:12 | 60.30703 | 24.92724 | 817 ft | 156 kts | 230° |
| 2026-04-22 05:13 | 60.29807 | 24.91361 | 1431 ft | 170 kts | 215° |
| 2026-04-22 05:13 | 60.28688 | 24.90172 | 1742 ft | 193 kts | 214° |
| 2026-04-22 05:13 | 60.27444 | 24.88783 | 2020 ft | 217 kts | 215° |
| 2026-04-22 05:13 | 60.26062 | 24.87229 | 2501 ft | 235 kts | 215° |
| 2026-04-22 05:14 | 60.24601 | 24.85608 | 3311 ft | 240 kts | 214° |
| 2026-04-22 05:14 | 60.23084 | 24.84190 | 4130 ft | 250 kts | 200° |
| 2026-04-22 05:14 | 60.21377 | 24.83374 | 4959 ft | 254 kts | 198° |
| 2026-04-22 05:14 | 60.19625 | 24.82573 | 5720 ft | 260 kts | 198° |
| 2026-04-22 05:15 | 60.17839 | 24.81759 | 6465 ft | 266 kts | 197° |
| 2026-04-22 05:15 | 60.16017 | 24.80932 | 7211 ft | 270 kts | 197° |
| 2026-04-22 05:15 | 60.14190 | 24.80100 | 7919 ft | 278 kts | 197° |
| 2026-04-22 05:15 | 60.12237 | 24.79198 | 8356 ft | 295 kts | 197° |
| 2026-04-22 05:16 | 60.10203 | 24.78257 | 9076 ft | 302 kts | 196° |
| 2026-04-22 05:16 | 60.08133 | 24.77303 | 9851 ft | 307 kts | 196° |
| 2026-04-22 05:16 | 60.06013 | 24.76333 | 10355 ft | 322 kts | 195° |
| 2026-04-22 05:16 | 60.03748 | 24.75291 | 10570 ft | 345 kts | 195° |
| 2026-04-22 05:17 | 60.01386 | 24.74201 | 11030 ft | 357 kts | 195° |
| 2026-04-22 05:17 | 59.98940 | 24.73087 | 11711 ft | 362 kts | 195° |
| 2026-04-22 05:17 | 59.96462 | 24.71968 | 12420 ft | 366 kts | 195° |
| 2026-04-22 05:17 | 59.93965 | 24.70840 | 13127 ft | 370 kts | 195° |
| 2026-04-22 05:18 | 59.88887 | 24.68533 | 14416 ft | 377 kts | 194° |
| 2026-04-22 05:18 | 59.86351 | 24.67382 | 15017 ft | 381 kts | 194° |
| 2026-04-22 05:18 | 59.83753 | 24.66200 | 15637 ft | 384 kts | 194° |
| 2026-04-22 05:19 | 59.81131 | 24.64986 | 16246 ft | 388 kts | 195° |
| 2026-04-22 05:19 | 59.78494 | 24.63742 | 16838 ft | 391 kts | 195° |
| 2026-04-22 05:19 | 59.75835 | 24.62476 | 17429 ft | 395 kts | 195° |
| 2026-04-22 05:19 | 59.73151 | 24.61201 | 18019 ft | 398 kts | 195° |
| 2026-04-22 05:20 | 59.70467 | 24.59934 | 18565 ft | 402 kts | 195° |
| 2026-04-22 05:20 | 59.67731 | 24.58648 | 19068 ft | 405 kts | 194° |
| 2026-04-22 05:20 | 59.64957 | 24.57402 | 19573 ft | 409 kts | 193° |
| 2026-04-22 05:20 | 59.62154 | 24.56270 | 20077 ft | 413 kts | 192° |
| 2026-04-22 05:21 | 59.59320 | 24.55203 | 20593 ft | 416 kts | 191° |
| 2026-04-22 05:21 | 59.56457 | 24.54163 | 21124 ft | 418 kts | 191° |
| 2026-04-22 05:21 | 59.53582 | 24.53125 | 21640 ft | 422 kts | 191° |
| 2026-04-22 05:21 | 59.50679 | 24.52063 | 22141 ft | 425 kts | 191° |
| 2026-04-22 05:22 | 59.47799 | 24.50990 | 22622 ft | 428 kts | 191° |
| 2026-04-22 05:22 | 59.44858 | 24.49879 | 23101 ft | 432 kts | 191° |
| 2026-04-22 05:22 | 59.41898 | 24.48754 | 23567 ft | 435 kts | 191° |
| 2026-04-22 05:22 | 59.38909 | 24.47616 | 23950 ft | 438 kts | 191° |
| 2026-04-22 05:23 | 59.35896 | 24.46467 | 24329 ft | 441 kts | 191° |
| 2026-04-22 05:23 | 59.32901 | 24.45329 | 24693 ft | 444 kts | 191° |
| 2026-04-22 05:23 | 59.29852 | 24.44179 | 25052 ft | 447 kts | 191° |
| 2026-04-22 05:23 | 59.26783 | 24.43027 | 25402 ft | 450 kts | 191° |
| 2026-04-22 05:24 | 59.23690 | 24.41866 | 25748 ft | 453 kts | 190° |
| 2026-04-22 05:24 | 59.20625 | 24.40719 | 26077 ft | 455 kts | 190° |
| 2026-04-22 05:24 | 59.17494 | 24.39549 | 26414 ft | 458 kts | 190° |
| 2026-04-22 05:24 | 59.14332 | 24.38370 | 26756 ft | 461 kts | 190° |
| 2026-04-22 05:25 | 59.11170 | 24.37195 | 27112 ft | 463 kts | 191° |
| 2026-04-22 05:25 | 59.08045 | 24.36037 | 27447 ft | 465 kts | 191° |
| 2026-04-22 05:25 | 59.04853 | 24.34857 | 27787 ft | 467 kts | 190° |
| 2026-04-22 05:25 | 59.01654 | 24.33674 | 28147 ft | 468 kts | 191° |
| 2026-04-22 05:26 | 58.98451 | 24.32490 | 28515 ft | 469 kts | 191° |
| 2026-04-22 05:26 | 58.95228 | 24.31298 | 28830 ft | 471 kts | 191° |
| 2026-04-22 05:26 | 58.91996 | 24.30103 | 29129 ft | 473 kts | 190° |
| 2026-04-22 05:26 | 58.88787 | 24.28920 | 29415 ft | 475 kts | 190° |
| 2026-04-22 05:27 | 58.85531 | 24.27724 | 29691 ft | 477 kts | 190° |
| 2026-04-22 05:27 | 58.82260 | 24.26526 | 29961 ft | 479 kts | 190° |
| 2026-04-22 05:27 | 58.78975 | 24.25329 | 30207 ft | 481 kts | 190° |
| 2026-04-22 05:27 | 58.75676 | 24.24131 | 30425 ft | 483 kts | 190° |
| 2026-04-22 05:28 | 58.72365 | 24.22927 | 30683 ft | 483 kts | 190° |
| 2026-04-22 05:28 | 58.69102 | 24.21742 | 30943 ft | 483 kts | 190° |
| 2026-04-22 05:28 | 58.65813 | 24.20554 | 31248 ft | 482 kts | 190° |
| 2026-04-22 05:28 | 58.62495 | 24.19357 | 31535 ft | 481 kts | 189° |
| 2026-04-22 05:29 | 58.59206 | 24.18171 | 31821 ft | 481 kts | 189° |
| 2026-04-22 05:29 | 58.55908 | 24.16984 | 32106 ft | 481 kts | 189° |
| 2026-04-22 05:29 | 58.52664 | 24.15819 | 32384 ft | 481 kts | 189° |
| 2026-04-22 05:29 | 58.49370 | 24.14636 | 32652 ft | 481 kts | 189° |
| 2026-04-22 05:30 | 58.46085 | 24.13456 | 32938 ft | 481 kts | 189° |
| 2026-04-22 05:30 | 58.42801 | 24.12279 | 33233 ft | 480 kts | 189° |
| 2026-04-22 05:30 | 58.39519 | 24.11107 | 33514 ft | 480 kts | 189° |
| 2026-04-22 05:30 | 58.36217 | 24.09930 | 33787 ft | 480 kts | 189° |
| 2026-04-22 05:31 | 58.32964 | 24.08771 | 34055 ft | 480 kts | 188° |
| 2026-04-22 05:31 | 58.29676 | 24.07604 | 34285 ft | 480 kts | 188° |
| 2026-04-22 05:31 | 58.26394 | 24.06442 | 34502 ft | 480 kts | 188° |
| 2026-04-22 05:31 | 58.23098 | 24.05274 | 34738 ft | 479 kts | 188° |
| 2026-04-22 05:32 | 58.19816 | 24.04112 | 34952 ft | 479 kts | 188° |
| 2026-04-22 05:32 | 58.16573 | 24.02966 | 35181 ft | 478 kts | 188° |
| 2026-04-22 05:32 | 58.13305 | 24.01814 | 35437 ft | 477 kts | 188° |
| 2026-04-22 05:32 | 58.10032 | 24.00663 | 35658 ft | 476 kts | 188° |
| 2026-04-22 05:33 | 58.06766 | 23.99518 | 35884 ft | 476 kts | 188° |
| 2026-04-22 05:33 | 58.03510 | 23.98379 | 36031 ft | 475 kts | 188° |
| 2026-04-22 05:33 | 57.97054 | 23.96133 | 36066 ft | 473 kts | 188° |
| 2026-04-22 05:34 | 57.90569 | 23.93889 | 36068 ft | 472 kts | 188° |
| 2026-04-22 05:34 | 57.84109 | 23.91652 | 36065 ft | 471 kts | 188° |
| 2026-04-22 05:35 | 57.77684 | 23.89437 | 36066 ft | 471 kts | 188° |
| 2026-04-22 05:35 | 57.71214 | 23.87221 | 36072 ft | 471 kts | 188° |
| 2026-04-22 05:36 | 57.64798 | 23.85026 | 36073 ft | 472 kts | 188° |
| 2026-04-22 05:36 | 57.58335 | 23.82829 | 36088 ft | 472 kts | 188° |
| 2026-04-22 05:37 | 57.51868 | 23.80632 | 36085 ft | 471 kts | 188° |
| 2026-04-22 05:37 | 57.45414 | 23.78436 | 36088 ft | 471 kts | 188° |
| 2026-04-22 05:38 | 57.38998 | 23.76268 | 36088 ft | 471 kts | 188° |
| 2026-04-22 05:38 | 57.32546 | 23.74090 | 36101 ft | 470 kts | 188° |
| 2026-04-22 05:39 | 57.26141 | 23.71944 | 36099 ft | 470 kts | 188° |
| 2026-04-22 05:39 | 57.19707 | 23.69816 | 36094 ft | 469 kts | 188° |
| 2026-04-22 05:40 | 57.13263 | 23.67686 | 36088 ft | 469 kts | 188° |
| 2026-04-22 05:40 | 57.06865 | 23.65554 | 36092 ft | 469 kts | 188° |
| 2026-04-22 05:41 | 57.00437 | 23.63412 | 36099 ft | 468 kts | 187° |
| 2026-04-22 05:41 | 56.94047 | 23.61313 | 36094 ft | 468 kts | 187° |
| 2026-04-22 05:42 | 56.87651 | 23.59222 | 36092 ft | 468 kts | 187° |
| 2026-04-22 05:42 | 56.81227 | 23.57125 | 36091 ft | 468 kts | 187° |
| 2026-04-22 05:43 | 56.74845 | 23.55049 | 36104 ft | 468 kts | 187° |
| 2026-04-22 05:43 | 56.68428 | 23.52958 | 36103 ft | 467 kts | 187° |
| 2026-04-22 05:44 | 56.62013 | 23.50878 | 36099 ft | 467 kts | 187° |
| 2026-04-22 05:44 | 56.55640 | 23.48831 | 36099 ft | 467 kts | 187° |
| 2026-04-22 05:45 | 56.49221 | 23.46778 | 36097 ft | 467 kts | 187° |
| 2026-04-22 05:45 | 56.42857 | 23.44742 | 36100 ft | 467 kts | 187° |
| 2026-04-22 05:46 | 56.36431 | 23.42683 | 36100 ft | 467 kts | 187° |
| 2026-04-22 05:46 | 56.30052 | 23.40926 | 36102 ft | 466 kts | 185° |
| 2026-04-22 05:47 | 56.23613 | 23.39472 | 36114 ft | 465 kts | 184° |
| 2026-04-22 05:47 | 56.17185 | 23.38026 | 36106 ft | 465 kts | 184° |
| 2026-04-22 05:48 | 56.10789 | 23.36514 | 36096 ft | 465 kts | 185° |
| 2026-04-22 05:48 | 56.04369 | 23.34948 | 36100 ft | 465 kts | 184° |
| 2026-04-22 05:49 | 55.97955 | 23.33396 | 36083 ft | 465 kts | 184° |
| 2026-04-22 05:49 | 55.91576 | 23.31876 | 36093 ft | 465 kts | 184° |
| 2026-04-22 05:50 | 55.85165 | 23.30363 | 36085 ft | 464 kts | 184° |
| 2026-04-22 05:50 | 55.78757 | 23.28849 | 36085 ft | 464 kts | 184° |
| 2026-04-22 05:51 | 55.72333 | 23.27334 | 36093 ft | 464 kts | 184° |
| 2026-04-22 05:51 | 55.65962 | 23.25847 | 36109 ft | 464 kts | 184° |
| 2026-04-22 05:52 | 55.59554 | 23.24351 | 36114 ft | 464 kts | 184° |
| 2026-04-22 05:52 | 55.53141 | 23.22845 | 36119 ft | 464 kts | 184° |
| 2026-04-22 05:53 | 55.46781 | 23.21358 | 36116 ft | 464 kts | 184° |
| 2026-04-22 05:53 | 55.40370 | 23.19877 | 36122 ft | 464 kts | 184° |
| 2026-04-22 05:54 | 55.35035 | 23.18641 | 36120 ft | 464 kts | 184° |
| 2026-04-22 05:54 | 55.28624 | 23.17162 | 36119 ft | 464 kts | 184° |
| 2026-04-22 05:55 | 55.22211 | 23.15704 | 36117 ft | 464 kts | 184° |
| 2026-04-22 05:55 | 55.15834 | 23.14241 | 36163 ft | 464 kts | 183° |
| 2026-04-22 05:56 | 55.09408 | 23.12766 | 36142 ft | 465 kts | 183° |
| 2026-04-22 05:56 | 55.02985 | 23.11305 | 36144 ft | 465 kts | 183° |
| 2026-04-22 05:57 | 54.96596 | 23.09859 | 36138 ft | 465 kts | 183° |
| 2026-04-22 05:57 | 54.90165 | 23.08412 | 36139 ft | 465 kts | 183° |
| 2026-04-22 05:58 | 54.83776 | 23.06979 | 36149 ft | 465 kts | 183° |
| 2026-04-22 05:58 | 54.77337 | 23.05535 | 36134 ft | 466 kts | 183° |
| 2026-04-22 05:59 | 54.70940 | 23.04099 | 36148 ft | 466 kts | 183° |
| 2026-04-22 05:59 | 54.64497 | 23.02654 | 36139 ft | 466 kts | 183° |
| 2026-04-22 06:00 | 54.58055 | 23.01220 | 36152 ft | 466 kts | 183° |
| 2026-04-22 06:00 | 54.51656 | 22.99808 | 36143 ft | 466 kts | 183° |
| 2026-04-22 06:01 | 54.45209 | 22.98391 | 36154 ft | 467 kts | 183° |
| 2026-04-22 06:01 | 54.38794 | 22.96977 | 36156 ft | 466 kts | 183° |
| 2026-04-22 06:02 | 54.32352 | 22.95555 | 36171 ft | 466 kts | 183° |
| 2026-04-22 06:02 | 54.25897 | 22.94148 | 36162 ft | 467 kts | 183° |
| 2026-04-22 06:03 | 54.19445 | 22.92746 | 36154 ft | 467 kts | 183° |
| 2026-04-22 06:03 | 54.13032 | 22.91345 | 36148 ft | 467 kts | 183° |
| 2026-04-22 06:04 | 54.06619 | 22.89279 | 36154 ft | 472 kts | 195° |
| 2026-04-22 06:04 | 54.00648 | 22.84644 | 36144 ft | 476 kts | 204° |
| 2026-04-22 06:05 | 53.94719 | 22.79606 | 36141 ft | 476 kts | 204° |
| 2026-04-22 06:05 | 53.88783 | 22.74603 | 36140 ft | 476 kts | 204° |
| 2026-04-22 06:06 | 53.82845 | 22.69615 | 36140 ft | 476 kts | 204° |
| 2026-04-22 06:06 | 53.76929 | 22.64668 | 36145 ft | 477 kts | 204° |
| 2026-04-22 06:07 | 53.70975 | 22.59692 | 36150 ft | 477 kts | 204° |
| 2026-04-22 06:07 | 53.65050 | 22.54742 | 36150 ft | 477 kts | 204° |
| 2026-04-22 06:08 | 53.59083 | 22.49776 | 36159 ft | 477 kts | 204° |
| 2026-04-22 06:08 | 53.53158 | 22.44870 | 36155 ft | 477 kts | 204° |
| 2026-04-22 06:09 | 53.47190 | 22.39960 | 36154 ft | 477 kts | 204° |
| 2026-04-22 06:09 | 53.41222 | 22.35058 | 36159 ft | 477 kts | 204° |
| 2026-04-22 06:10 | 53.35293 | 22.30186 | 36162 ft | 476 kts | 204° |
| 2026-04-22 06:10 | 53.29333 | 22.25301 | 36165 ft | 477 kts | 204° |
| 2026-04-22 06:11 | 53.23372 | 22.20441 | 36164 ft | 477 kts | 204° |
| 2026-04-22 06:11 | 53.17419 | 22.15612 | 36178 ft | 477 kts | 204° |
| 2026-04-22 06:12 | 53.11451 | 22.10778 | 36173 ft | 477 kts | 204° |
| 2026-04-22 06:12 | 53.05477 | 22.05940 | 36168 ft | 477 kts | 204° |
| 2026-04-22 06:13 | 52.99533 | 22.01146 | 36170 ft | 477 kts | 204° |
| 2026-04-22 06:13 | 52.93556 | 21.96349 | 36178 ft | 476 kts | 204° |
| 2026-04-22 06:14 | 52.87577 | 21.91581 | 36174 ft | 476 kts | 204° |
| 2026-04-22 06:14 | 52.81641 | 21.86843 | 36180 ft | 476 kts | 204° |
| 2026-04-22 06:15 | 52.75662 | 21.82086 | 36177 ft | 477 kts | 204° |
| 2026-04-22 06:15 | 52.69672 | 21.77333 | 36192 ft | 477 kts | 204° |
| 2026-04-22 06:16 | 52.63731 | 21.72646 | 36189 ft | 476 kts | 204° |
| 2026-04-22 06:16 | 52.57758 | 21.67940 | 36183 ft | 476 kts | 204° |
| 2026-04-22 06:17 | 52.51772 | 21.63232 | 36173 ft | 475 kts | 204° |
| 2026-04-22 06:17 | 52.45822 | 21.58566 | 36177 ft | 475 kts | 204° |
| 2026-04-22 06:18 | 52.39839 | 21.53893 | 36176 ft | 475 kts | 204° |
| 2026-04-22 06:18 | 52.33890 | 21.49253 | 36175 ft | 475 kts | 204° |
| 2026-04-22 06:19 | 52.27910 | 21.44616 | 36183 ft | 475 kts | 204° |
| 2026-04-22 06:19 | 52.21955 | 21.40012 | 36194 ft | 475 kts | 204° |
| 2026-04-22 06:20 | 52.15976 | 21.35391 | 36194 ft | 475 kts | 204° |
| 2026-04-22 06:20 | 52.10039 | 21.30818 | 36193 ft | 474 kts | 204° |
| 2026-04-22 06:21 | 52.04067 | 21.26242 | 36202 ft | 474 kts | 204° |
| 2026-04-22 06:21 | 51.98087 | 21.21677 | 36198 ft | 474 kts | 204° |
| 2026-04-22 06:22 | 51.92098 | 21.17115 | 36193 ft | 474 kts | 204° |
| 2026-04-22 06:22 | 51.86172 | 21.12603 | 36191 ft | 473 kts | 204° |
| 2026-04-22 06:23 | 51.80208 | 21.08071 | 36202 ft | 473 kts | 204° |
| 2026-04-22 06:23 | 51.74236 | 21.03560 | 36199 ft | 473 kts | 204° |
| 2026-04-22 06:24 | 51.65296 | 20.96834 | 36192 ft | 472 kts | 204° |
| 2026-04-22 06:25 | 51.59371 | 20.92398 | 36192 ft | 472 kts | 204° |
| 2026-04-22 06:25 | 51.53410 | 20.87935 | 36186 ft | 472 kts | 204° |
| 2026-04-22 06:26 | 51.47470 | 20.83491 | 36188 ft | 472 kts | 204° |
| 2026-04-22 06:26 | 51.41501 | 20.79052 | 36191 ft | 472 kts | 204° |
| 2026-04-22 06:27 | 51.35537 | 20.74635 | 36197 ft | 472 kts | 204° |
| 2026-04-22 06:27 | 51.29574 | 20.70227 | 36200 ft | 471 kts | 204° |
| 2026-04-22 06:28 | 51.23671 | 20.65813 | 36199 ft | 471 kts | 205° |
| 2026-04-22 06:28 | 51.17756 | 20.61302 | 36196 ft | 470 kts | 205° |
| 2026-04-22 06:29 | 51.11848 | 20.56802 | 36198 ft | 470 kts | 205° |
| 2026-04-22 06:29 | 51.05935 | 20.52334 | 36197 ft | 470 kts | 205° |
| 2026-04-22 06:30 | 51.00060 | 20.47921 | 36193 ft | 469 kts | 204° |
| 2026-04-22 06:30 | 50.94148 | 20.43493 | 36192 ft | 469 kts | 205° |
| 2026-04-22 06:31 | 50.88240 | 20.39084 | 36185 ft | 469 kts | 205° |
| 2026-04-22 06:31 | 50.82334 | 20.34673 | 36184 ft | 468 kts | 205° |
| 2026-04-22 06:32 | 50.76472 | 20.30310 | 36191 ft | 468 kts | 205° |
| 2026-04-22 06:32 | 50.70576 | 20.25933 | 36192 ft | 468 kts | 205° |
| 2026-04-22 06:33 | 50.64680 | 20.21580 | 36195 ft | 467 kts | 205° |
| 2026-04-22 06:33 | 50.58790 | 20.17241 | 36193 ft | 466 kts | 205° |
| 2026-04-22 06:34 | 50.52948 | 20.12934 | 36189 ft | 466 kts | 205° |
| 2026-04-22 06:34 | 50.47068 | 20.08610 | 36190 ft | 466 kts | 205° |
| 2026-04-22 06:35 | 50.41182 | 20.04309 | 36186 ft | 466 kts | 205° |
| 2026-04-22 06:35 | 50.35340 | 20.00053 | 36187 ft | 465 kts | 205° |
| 2026-04-22 06:36 | 50.29457 | 19.95780 | 36186 ft | 465 kts | 205° |
| 2026-04-22 06:36 | 50.23578 | 19.91517 | 36189 ft | 465 kts | 205° |
| 2026-04-22 06:37 | 50.17697 | 19.87259 | 36189 ft | 465 kts | 205° |
| 2026-04-22 06:37 | 50.11853 | 19.83047 | 36190 ft | 465 kts | 205° |
| 2026-04-22 06:38 | 50.05969 | 19.78815 | 36191 ft | 465 kts | 205° |
| 2026-04-22 06:38 | 50.00092 | 19.74593 | 36196 ft | 465 kts | 205° |
| 2026-04-22 06:39 | 49.94213 | 19.70389 | 36199 ft | 464 kts | 205° |
| 2026-04-22 06:39 | 49.88374 | 19.66214 | 36197 ft | 464 kts | 205° |
| 2026-04-22 06:40 | 49.82500 | 19.62030 | 36198 ft | 464 kts | 205° |
| 2026-04-22 06:40 | 49.76627 | 19.57860 | 36203 ft | 464 kts | 205° |
| 2026-04-22 06:41 | 49.70755 | 19.53709 | 36200 ft | 463 kts | 205° |
| 2026-04-22 06:41 | 49.64927 | 19.49590 | 36184 ft | 463 kts | 205° |
| 2026-04-22 06:42 | 49.59049 | 19.45492 | 36185 ft | 463 kts | 204° |
| 2026-04-22 06:42 | 49.53108 | 19.41640 | 36181 ft | 462 kts | 202° |
| 2026-04-22 06:43 | 49.47188 | 19.37916 | 36182 ft | 462 kts | 202° |
| 2026-04-22 06:43 | 49.41242 | 19.34121 | 36174 ft | 462 kts | 202° |
| 2026-04-22 06:44 | 49.35306 | 19.30298 | 36171 ft | 462 kts | 202° |
| 2026-04-22 06:44 | 49.29367 | 19.26491 | 36168 ft | 462 kts | 202° |
| 2026-04-22 06:45 | 49.23470 | 19.22726 | 36169 ft | 462 kts | 203° |
| 2026-04-22 06:45 | 49.17533 | 19.18953 | 36171 ft | 461 kts | 202° |
| 2026-04-22 06:46 | 49.11593 | 19.15199 | 36173 ft | 461 kts | 202° |
| 2026-04-22 06:46 | 49.05661 | 19.11435 | 36174 ft | 461 kts | 202° |
| 2026-04-22 06:47 | 48.99774 | 19.07709 | 36173 ft | 461 kts | 203° |
| 2026-04-22 06:47 | 48.93845 | 19.03985 | 36176 ft | 460 kts | 202° |
| 2026-04-22 06:48 | 48.88921 | 19.00896 | 36179 ft | 460 kts | 202° |
| 2026-04-22 06:48 | 48.83004 | 18.97182 | 36175 ft | 459 kts | 203° |
| 2026-04-22 06:49 | 48.77089 | 18.93485 | 36176 ft | 459 kts | 203° |
| 2026-04-22 06:49 | 48.71193 | 18.89806 | 36179 ft | 458 kts | 203° |
| 2026-04-22 06:50 | 48.65321 | 18.86151 | 36177 ft | 458 kts | 203° |
| 2026-04-22 06:50 | 48.59413 | 18.82485 | 36177 ft | 458 kts | 203° |
| 2026-04-22 06:51 | 48.53503 | 18.78841 | 36180 ft | 458 kts | 203° |
| 2026-04-22 06:51 | 48.47596 | 18.75197 | 36181 ft | 458 kts | 203° |
| 2026-04-22 06:52 | 48.41733 | 18.71581 | 36177 ft | 458 kts | 203° |
| 2026-04-22 06:52 | 48.35828 | 18.67951 | 36186 ft | 458 kts | 203° |
| 2026-04-22 06:53 | 48.29922 | 18.64336 | 36186 ft | 458 kts | 203° |
| 2026-04-22 06:53 | 48.24015 | 18.60732 | 36190 ft | 458 kts | 203° |
| 2026-04-22 06:54 | 48.18107 | 18.57136 | 36188 ft | 458 kts | 203° |
| 2026-04-22 06:54 | 48.12241 | 18.53568 | 36190 ft | 458 kts | 203° |
| 2026-04-22 06:55 | 48.06333 | 18.49983 | 36185 ft | 457 kts | 203° |
| 2026-04-22 06:55 | 48.00425 | 18.46407 | 36189 ft | 457 kts | 203° |
| 2026-04-22 06:56 | 47.94521 | 18.42839 | 36194 ft | 457 kts | 203° |
| 2026-04-22 06:56 | 47.88656 | 18.39304 | 36195 ft | 457 kts | 203° |
| 2026-04-22 06:57 | 47.82749 | 18.35756 | 36194 ft | 457 kts | 203° |
| 2026-04-22 06:57 | 47.76845 | 18.32222 | 36196 ft | 457 kts | 203° |
| 2026-04-22 06:58 | 47.70940 | 18.28700 | 36193 ft | 457 kts | 203° |
| 2026-04-22 06:58 | 47.65074 | 18.25203 | 36192 ft | 456 kts | 203° |
| 2026-04-22 06:59 | 47.59172 | 18.21699 | 36191 ft | 456 kts | 203° |
| 2026-04-22 06:59 | 47.53273 | 18.18201 | 36196 ft | 456 kts | 203° |
| 2026-04-22 07:00 | 47.47361 | 18.14701 | 36254 ft | 458 kts | 203° |